Time;durP1;ratioP1;P1;durP2;ratioP2;P2;SDS_P1;SDS_P2;PMS_P1;PMS_P2;Temp;Humidity;BMP_temperature;BMP_pressure;BME280_temperature;BME280_humidity;BME280_pressure;Samples;Min_cycle;Max_cycle;Signal;HPM_P1;HPM_P2
2023/08/17 00:01:34;;;;;;;5.40;2.35;;;;;;;15.36;100.00;101225.25;5020763;28;20050;-56
2023/08/17 00:04:00;;;;;;;6.78;2.60;;;;;;;15.38;100.00;101223.22;5020967;28;20090;-56
2023/08/17 00:06:27;;;;;;;5.95;2.58;;;;;;;15.34;100.00;101213.81;5020221;28;20394;-56
2023/08/17 00:08:54;;;;;;;11.00;2.92;;;;;;;15.39;100.00;101214.09;5020261;28;20050;-56
2023/08/17 00:11:20;;;;;;;10.68;2.78;;;;;;;15.33;100.00;101204.00;5021035;28;20122;-56
2023/08/17 00:13:47;;;;;;;7.05;2.80;;;;;;;15.16;100.00;101182.50;5021076;28;20054;-56
2023/08/17 00:16:14;;;;;;;7.80;2.97;;;;;;;14.98;100.00;101157.59;5020542;28;20038;-57
2023/08/17 00:18:40;;;;;;;7.82;2.53;;;;;;;14.99;100.00;101146.63;5013526;28;20053;-59
2023/08/17 00:21:07;;;;;;;8.93;2.88;;;;;;;14.99;100.00;101143.94;5010864;28;20073;-59
2023/08/17 00:23:34;;;;;;;9.68;2.60;;;;;;;14.93;100.00;101135.69;5011279;28;20099;-59
2023/08/17 00:26:01;;;;;;;8.10;2.67;;;;;;;14.64;100.00;101093.16;5011394;28;20045;-59
2023/08/17 00:28:27;;;;;;;5.97;2.70;;;;;;;14.55;100.00;101081.53;5028806;28;20048;-59
2023/08/17 00:30:53;;;;;;;10.68;3.35;;;;;;;14.64;100.00;101099.41;5095676;28;20475;-59
2023/08/17 00:33:20;;;;;;;6.55;2.88;;;;;;;14.40;100.00;101059.88;5113437;28;20486;-59
2023/08/17 00:35:47;;;;;;;10.00;3.05;;;;;;;14.52;100.00;101085.44;5113514;28;20100;-59
2023/08/17 00:38:14;;;;;;;8.25;2.58;;;;;;;14.50;100.00;101079.38;5113207;28;20036;-59
2023/08/17 00:40:40;;;;;;;7.35;2.50;;;;;;;14.33;100.00;101067.00;5113132;28;20517;-60
2023/08/17 00:43:07;;;;;;;7.78;2.40;;;;;;;14.09;100.00;101035.56;5113234;28;20047;-58
2023/08/17 00:45:35;;;;;;;8.43;2.83;;;;;;;14.04;100.00;101038.78;5113040;28;20100;-58
2023/08/17 00:48:04;;;;;;;9.18;3.03;;;;;;;13.61;100.00;100966.47;5113392;28;20039;-60
2023/08/17 00:50:32;;;;;;;7.65;2.72;;;;;;;13.95;100.00;101004.78;5113200;28;20052;-58
2023/08/17 00:52:58;;;;;;;5.20;2.55;;;;;;;13.91;100.00;101016.06;5113756;28;20047;-59
2023/08/17 00:55:26;;;;;;;12.15;2.63;;;;;;;13.93;100.00;101024.84;5112787;28;20047;-59
2023/08/17 00:57:55;;;;;;;7.25;2.75;;;;;;;13.93;100.00;101014.06;5113084;28;20056;-60
2023/08/17 01:00:24;;;;;;;6.70;2.50;;;;;;;13.55;100.00;100970.69;5112857;28;20055;-60
2023/08/17 01:02:51;;;;;;;7.70;2.78;;;;;;;13.82;100.00;101012.59;5128093;28;20044;-58
2023/08/17 01:09:05;;;;;;;8.75;3.05;;;;;;;13.11;100.00;100904.66;5121381;28;20074;-57
2023/08/17 01:11:44;;;;;;;6.88;2.75;;;;;;;13.09;100.00;100913.91;5121346;28;20152;-56
2023/08/17 01:14:27;;;;;;;5.05;2.67;;;;;;;12.68;100.00;100857.41;5123371;28;20044;-56
2023/08/17 01:17:02;;;;;;;7.93;2.55;;;;;;;12.11;100.00;100774.09;5121769;28;20039;-56
2023/08/17 01:19:29;;;;;;;7.20;2.53;;;;;;;12.61;100.00;100846.47;5080808;28;20482;-57
2023/08/17 01:22:03;;;;;;;7.97;2.80;;;;;;;13.10;100.00;100923.66;5122844;28;20043;-57
2023/08/17 01:24:29;;;;;;;14.30;3.38;;;;;;;13.07;100.00;100924.00;5122608;28;20046;-58
2023/08/17 01:26:56;;;;;;;7.07;2.47;;;;;;;12.69;100.00;100869.84;5123278;28;20485;-56
2023/08/17 01:29:22;;;;;;;9.27;3.10;;;;;;;12.77;100.00;100874.44;5061280;28;20072;-57
2023/08/17 01:32:25;;;;;;;12.68;3.45;;;;;;;12.50;100.00;100844.16;5019978;28;20064;-56
2023/08/17 01:35:07;;;;;;;8.25;2.83;;;;;;;12.12;100.00;100778.44;5020026;28;20490;-56
2023/08/17 01:37:37;;;;;;;8.88;2.92;;;;;;;11.93;100.00;100756.28;5019686;28;20102;-56
2023/08/17 01:40:07;;;;;;;10.57;3.05;;;;;;;10.91;100.00;100598.19;5020109;28;20042;-56
2023/08/17 01:42:34;;;;;;;5.38;3.00;;;;;;;10.86;100.00;100589.75;5019726;28;20170;-57
2023/08/17 01:45:01;;;;;;;10.15;2.67;;;;;;;10.47;100.00;100532.16;5020057;28;20095;-56
2023/08/17 01:47:30;;;;;;;11.27;2.50;;;;;;;10.88;100.00;100609.25;5052661;28;20080;-57
2023/08/17 01:49:59;;;;;;;7.95;2.97;;;;;;;11.40;100.00;100697.59;5019638;28;20474;-56
2023/08/17 01:52:28;;;;;;;9.02;2.60;;;;;;;11.01;100.00;100632.94;5019145;28;20449;-56
2023/08/17 01:54:54;;;;;;;7.70;3.05;;;;;;;10.50;100.00;100561.34;5020008;28;20042;-56
2023/08/17 01:57:21;;;;;;;6.57;3.17;;;;;;;9.39;100.00;100389.09;5020026;28;20099;-56
2023/08/17 01:59:47;;;;;;;7.15;2.83;;;;;;;7.54;100.00;100098.09;5020940;28;20050;-56
2023/08/17 02:02:14;;;;;;;6.65;2.88;;;;;;;7.96;100.00;100167.66;5019741;28;20145;-56
2023/08/17 02:04:41;;;;;;;8.30;2.92;;;;;;;9.44;100.00;100392.16;5019652;28;20049;-56
2023/08/17 02:07:07;;;;;;;8.68;3.17;;;;;;;9.85;100.00;100477.16;5019473;28;20046;-56
2023/08/17 02:09:34;;;;;;;9.65;3.35;;;;;;;10.22;100.00;100543.81;5018536;28;20046;-56
2023/08/17 02:12:00;;;;;;;6.28;2.67;;;;;;;9.74;100.00;100459.53;5017847;28;20094;-57
2023/08/17 02:14:27;;;;;;;7.53;2.97;;;;;;;9.54;100.00;100433.03;5017725;28;20075;-57
2023/08/17 02:16:53;;;;;;;10.38;2.60;;;;;;;8.99;100.00;100352.22;5018136;28;20467;-57
2023/08/17 02:19:20;;;;;;;9.10;3.00;;;;;;;7.68;100.00;100144.72;5018676;28;20101;-57
2023/08/17 02:21:47;;;;;;;7.85;2.78;;;;;;;8.60;100.00;100285.81;5019272;28;20460;-57
2023/08/17 02:24:14;;;;;;;7.60;2.92;;;;;;;10.29;100.00;100555.56;5019484;28;20050;-57
2023/08/17 02:26:40;;;;;;;4.25;2.55;;;;;;;8.86;100.00;100336.63;5018795;28;20054;-56
2023/08/17 02:29:06;;;;;;;10.68;3.10;;;;;;;9.31;100.00;100405.13;5064520;28;20063;-56
2023/08/17 02:31:33;;;;;;;7.55;2.88;;;;;;;9.22;100.00;100387.31;5121076;28;20116;-58
2023/08/17 02:34:04;;;;;;;7.55;2.70;;;;;;;9.15;100.00;100370.22;5121260;28;20056;-57
2023/08/17 02:36:31;;;;;;;;;;;;;;;7.35;100.00;100069.75;5121458;28;20122;-57
2023/08/17 02:38:58;;;;;;;5.28;2.90;;;;;;;7.35;100.00;100078.56;5120449;28;20328;-57
2023/08/17 02:41:25;;;;;;;6.75;3.47;;;;;;;7.66;100.00;100131.53;5121074;28;20055;-57
2023/08/17 02:43:52;;;;;;;10.20;3.28;;;;;;;6.97;100.00;100012.25;5121273;28;20510;-56
2023/08/17 02:46:18;;;;;;;8.02;2.70;;;;;;;6.70;100.00;99977.56;5121182;28;20044;-56
2023/08/17 02:48:45;;;;;;;9.88;3.25;;;;;;;5.61;100.00;99809.03;5120615;28;20083;-56
2023/08/17 02:51:11;;;;;;;13.20;3.40;;;;;;;6.71;100.00;99983.72;5120472;28;20044;-56
2023/08/17 02:53:38;;;;;;;7.32;2.88;;;;;;;6.43;100.00;99945.66;5120007;28;20055;-58
2023/08/17 02:56:04;;;;;;;5.00;2.25;;;;;;;5.28;100.00;99760.81;5120670;28;20087;-56
2023/08/17 02:58:31;;;;;;;7.35;2.88;;;;;;;5.95;100.00;99869.59;5119688;28;20104;-57
2023/08/17 03:00:57;;;;;;;8.48;2.72;;;;;;;6.84;100.00;100016.16;5120444;28;20085;-57
2023/08/17 03:03:24;;;;;;;10.02;3.08;;;;;;;6.82;100.00;100022.63;5119466;28;20449;-57
2023/08/17 03:05:51;;;;;;;10.43;2.72;;;;;;;8.37;100.00;100266.81;5119504;28;20076;-56
2023/08/17 03:08:17;;;;;;;10.30;2.80;;;;;;;7.84;100.00;100187.59;5120614;28;20100;-55
2023/08/17 03:10:44;;;;;;;5.03;2.58;;;;;;;7.66;100.00;100151.06;5119145;28;20484;-56
2023/08/17 03:13:10;;;;;;;5.93;2.50;;;;;;;8.09;100.00;100221.53;5118961;28;20048;-57
2023/08/17 03:15:39;;;;;;;7.80;2.40;;;;;;;8.84;100.00;100341.28;5119758;28;20047;-56
2023/08/17 03:18:07;;;;;;;6.47;2.30;;;;;;;9.45;100.00;100446.53;5119647;28;20721;-55
2023/08/17 03:20:33;;;;;;;7.90;2.63;;;;;;;9.80;100.00;100493.72;5116037;28;20410;-59
2023/08/17 03:23:01;;;;;;;7.28;3.13;;;;;;;10.51;100.00;100605.09;5109828;28;20044;-59
2023/08/17 03:25:27;;;;;;;7.35;2.88;;;;;;;10.94;100.00;100678.38;5109705;28;20055;-59
2023/08/17 03:27:54;;;;;;;13.05;2.95;;;;;;;11.31;100.00;100725.44;5106235;28;20465;-59
2023/08/17 03:30:20;;;;;;;9.40;2.58;;;;;;;11.78;100.00;100797.41;5013977;28;20058;-56
2023/08/17 03:32:47;;;;;;;8.43;2.63;;;;;;;11.87;100.00;100826.84;5016959;28;20054;-56
2023/08/17 03:35:14;;;;;;;6.47;2.30;;;;;;;12.02;100.00;100829.69;5017451;28;20046;-56
2023/08/17 03:37:40;;;;;;;7.85;2.63;;;;;;;12.07;100.00;100846.19;5016857;28;20099;-56
2023/08/17 03:40:07;;;;;;;9.48;3.13;;;;;;;12.47;100.00;100919.00;5017118;28;20146;-57
2023/08/17 03:42:34;;;;;;;6.55;3.00;;;;;;;12.33;100.00;100886.38;5015675;28;20491;-57
2023/08/17 03:45:01;;;;;;;7.88;2.58;;;;;;;11.57;100.00;100777.19;5015831;28;20060;-56
2023/08/17 03:47:28;;;;;;;9.27;2.63;;;;;;;11.71;100.00;100812.53;5050016;28;20050;-56
2023/08/17 03:49:55;;;;;;;7.78;2.67;;;;;;;11.60;100.00;100786.78;5016204;28;20042;-55
2023/08/17 03:52:21;;;;;;;6.28;2.70;;;;;;;11.85;100.00;100833.38;5015849;28;20050;-56
2023/08/17 03:54:48;;;;;;;8.75;2.75;;;;;;;12.26;100.00;100885.34;5022795;28;20054;-57
2023/08/17 03:57:14;;;;;;;6.18;2.42;;;;;;;12.18;100.00;100888.03;5023744;28;20346;-58
2023/08/17 03:59:41;;;;;;;11.18;2.75;;;;;;;12.53;100.00;100927.25;5023302;28;20365;-57
2023/08/17 04:02:07;;;;;;;5.72;2.42;;;;;;;12.63;100.00;100948.59;5023949;28;20061;-57
2023/08/17 04:04:34;;;;;;;4.50;2.38;;;;;;;12.74;100.00;100961.75;5024447;28;20187;-57
2023/08/17 04:07:01;;;;;;;7.30;2.88;;;;;;;12.88;100.00;100977.22;5026080;28;20045;-57
2023/08/17 04:09:27;;;;;;;7.60;2.90;;;;;;;13.29;100.00;101043.69;5026536;28;20087;-57
2023/08/17 04:11:54;;;;;;;5.57;2.53;;;;;;;13.24;100.00;101037.97;5025208;28;20049;-57
2023/08/17 04:14:21;;;;;;;8.50;2.20;;;;;;;13.43;100.00;101063.72;5025810;28;20562;-57
2023/08/17 04:16:47;;;;;;;8.45;2.38;;;;;;;13.40;100.00;101058.66;5026466;28;20057;-57
2023/08/17 04:19:14;;;;;;;6.78;2.72;;;;;;;13.47;100.00;101060.50;5024933;28;20101;-57
2023/08/17 04:21:40;;;;;;;5.95;2.28;;;;;;;13.71;100.00;101099.22;5019860;28;20105;-57
2023/08/17 04:24:07;;;;;;;7.53;2.47;;;;;;;13.75;100.00;101103.25;5027525;28;20565;-57
2023/08/17 04:26:33;;;;;;;7.13;2.28;;;;;;;13.99;100.00;101132.06;5027642;28;20083;-57
2023/08/17 04:29:00;;;;;;;13.82;2.80;;;;;;;14.04;100.00;101135.91;5069581;28;20044;-58
2023/08/17 04:31:27;;;;;;;5.07;2.47;;;;;;;14.19;100.00;101138.75;5090145;28;20099;-58
2023/08/17 04:33:53;;;;;;;7.65;2.63;;;;;;;14.14;100.00;101149.19;5130390;28;20044;-58
2023/08/17 04:36:20;;;;;;;8.52;2.50;;;;;;;14.11;100.00;101152.25;5130274;28;20077;-58
2023/08/17 04:38:46;;;;;;;8.60;2.28;;;;;;;14.14;100.00;101157.28;5130604;28;20209;-58
2023/08/17 04:41:13;;;;;;;11.43;2.67;;;;;;;14.21;100.00;101157.44;5134402;28;20069;-58
2023/08/17 04:43:40;;;;;;;8.77;2.47;;;;;;;14.35;100.00;101180.16;5133583;28;20059;-59
2023/08/17 04:46:06;;;;;;;5.93;2.38;;;;;;;14.54;100.00;101193.28;5133837;28;20044;-59
2023/08/17 04:48:33;;;;;;;10.60;3.08;;;;;;;14.60;100.00;101207.91;5133071;28;20047;-59
2023/08/17 04:50:59;;;;;;;5.63;2.00;;;;;;;14.62;100.00;101214.81;5133932;28;20038;-59
2023/08/17 04:53:26;;;;;;;5.88;2.13;;;;;;;14.72;100.00;101228.16;5134435;28;20044;-59
2023/08/17 04:55:52;;;;;;;7.38;2.40;;;;;;;14.70;100.00;101230.16;5133531;28;20125;-59
2023/08/17 04:58:19;;;;;;;6.25;2.30;;;;;;;14.63;100.00;101230.00;5132729;28;20052;-59
2023/08/17 05:00:47;;;;;;;7.05;2.30;;;;;;;14.54;100.00;101228.38;5131816;28;20047;-58
2023/08/17 05:03:14;;;;;;;7.55;2.50;;;;;;;14.53;100.00;101210.47;5132408;28;20047;-59
2023/08/17 05:05:58;;;;;;;6.32;2.70;;;;;;;14.42;100.00;101222.47;5131448;28;20044;-58
2023/08/17 05:08:25;;;;;;;8.60;2.13;;;;;;;14.42;100.00;101227.03;5130958;28;20047;-59
2023/08/17 05:10:51;;;;;;;6.05;2.17;;;;;;;14.56;100.00;101231.72;5130058;28;20039;-60
2023/08/17 05:13:18;;;;;;;8.75;2.75;;;;;;;14.56;100.00;101237.13;5131547;28;20057;-58
2023/08/17 05:15:44;;;;;;;7.57;1.88;;;;;;;14.51;100.00;101234.13;5130901;28;20077;-59
2023/08/17 05:18:11;;;;;;;9.25;2.05;;;;;;;14.56;100.00;101245.22;5131695;28;20047;-59
2023/08/17 05:20:37;;;;;;;9.40;2.60;;;;;;;14.51;100.00;101232.25;5130268;28;20102;-57
2023/08/17 05:23:05;;;;;;;6.75;2.20;;;;;;;14.36;100.00;101222.34;5131459;28;20073;-57
2023/08/17 05:25:31;;;;;;;5.85;2.03;;;;;;;14.30;100.00;101210.38;5131187;28;20088;-58
2023/08/17 05:27:58;;;;;;;4.15;2.13;;;;;;;14.35;100.00;101220.66;5128301;28;20052;-59
2023/08/17 05:30:24;;;;;;;4.93;2.33;;;;;;;14.58;100.00;101229.69;5028789;28;20050;-58
2023/08/17 05:32:51;;;;;;;6.38;2.50;;;;;;;14.54;100.00;101236.47;5028953;28;20049;-58
2023/08/17 05:35:17;;;;;;;9.52;2.45;;;;;;;14.58;100.00;101237.81;5028241;28;20040;-57
2023/08/17 05:37:44;;;;;;;4.82;2.15;;;;;;;14.62;100.00;101241.84;5027983;28;20046;-57
2023/08/17 05:40:11;;;;;;;7.20;2.47;;;;;;;14.51;100.00;101243.06;5027273;28;20083;-59
2023/08/17 05:42:38;;;;;;;7.75;2.65;;;;;;;14.67;100.00;101255.66;5027518;28;20113;-58
2023/08/17 05:45:05;;;;;;;4.80;2.22;;;;;;;14.72;100.00;101257.88;5022847;28;20140;-57
2023/08/17 05:47:32;;;;;;;5.38;2.13;;;;;;;14.87;100.00;101263.38;5018743;28;20103;-57
2023/08/17 05:49:58;;;;;;;8.55;2.40;;;;;;;15.20;100.00;101307.31;5018522;28;20098;-56
2023/08/17 05:52:25;;;;;;;9.10;2.90;;;;;;;15.56;100.00;101337.34;5017618;28;20159;-56
2023/08/17 05:54:51;;;;;;;16.77;3.10;;;;;;;16.09;100.00;101368.16;5017859;28;20050;-55
2023/08/17 05:57:18;;;;;;;6.20;2.88;;;;;;;16.23;100.00;101392.72;5017130;28;20064;-57
2023/08/17 05:59:44;;;;;;;6.75;2.55;;;;;;;16.18;100.00;101404.94;5017503;28;20114;-56
2023/08/17 06:02:11;;;;;;;6.82;2.70;;;;;;;16.12;100.00;101415.66;5016955;28;20090;-56
2023/08/17 06:04:37;;;;;;;8.80;2.58;;;;;;;15.98;100.00;101417.28;5017386;28;20042;-56
2023/08/17 06:07:04;;;;;;;8.02;2.60;;;;;;;15.99;100.00;101410.84;5018390;28;20050;-55
2023/08/17 06:09:30;;;;;;;7.20;2.25;;;;;;;16.01;100.00;101405.25;5018189;28;20071;-56
2023/08/17 06:11:57;;;;;;;9.45;2.70;;;;;;;16.06;100.00;101409.13;5017655;28;20071;-57
2023/08/17 06:14:23;;;;;;;22.67;2.65;;;;;;;16.25;100.00;101396.94;5017916;28;20053;-56
2023/08/17 06:16:50;;;;;;;6.95;2.22;;;;;;;16.23;100.00;101398.13;5017205;28;20053;-58
2023/08/17 06:19:17;;;;;;;8.13;2.53;;;;;;;16.25;100.00;101390.69;5015580;28;20204;-57
2023/08/17 06:21:43;;;;;;;8.05;2.45;;;;;;;16.41;100.00;101377.03;5011226;28;20103;-56
2023/08/17 06:24:10;;;;;;;5.78;2.33;;;;;;;16.47;100.00;101394.41;5018356;28;20050;-56
2023/08/17 06:26:36;;;;;;;8.57;2.80;;;;;;;16.59;100.00;101390.25;5017137;28;20057;-56
2023/08/17 06:29:03;;;;;;;8.13;2.40;;;;;;;16.50;100.00;101384.06;5060318;28;20047;-55
2023/08/17 06:31:30;;;;;;;7.47;2.35;;;;;;;16.52;100.00;101373.91;5117989;28;20052;-56
2023/08/17 06:33:57;;;;;;;9.73;2.75;;;;;;;16.52;100.00;101371.19;5118831;28;20048;-56
2023/08/17 06:36:23;;;;;;;12.50;2.70;;;;;;;16.42;100.00;101370.56;5118619;28;20052;-57
2023/08/17 06:38:50;;;;;;;9.07;2.38;;;;;;;16.49;100.00;101359.84;5118055;28;20055;-57
2023/08/17 06:41:17;;;;;;;9.02;3.40;;;;;;;16.48;100.00;101341.94;5117853;28;20061;-57
2023/08/17 06:43:43;;;;;;;9.57;2.53;;;;;;;16.64;100.00;101348.06;5118730;28;20051;-57
2023/08/17 06:46:10;;;;;;;10.55;3.00;;;;;;;16.54;100.00;101349.31;5118785;28;20048;-55
2023/08/17 06:48:36;;;;;;;12.40;2.85;;;;;;;16.21;100.00;101343.34;5118980;28;20094;-56
2023/08/17 06:51:04;;;;;;;8.05;2.40;;;;;;;16.41;100.00;101347.25;5117976;28;20054;-56
2023/08/17 06:53:31;;;;;;;8.65;2.58;;;;;;;16.60;100.00;101345.88;5118776;28;20528;-57
2023/08/17 06:55:57;;;;;;;8.50;2.30;;;;;;;16.74;100.00;101347.78;5119249;28;20050;-58
2023/08/17 06:58:28;;;;;;;5.63;2.15;;;;;;;16.45;100.00;101345.84;5118245;28;20093;-56
2023/08/17 07:00:54;;;;;;;7.15;2.58;;;;;;;16.03;100.00;101322.88;5118696;28;20051;-57
2023/08/17 07:03:22;;;;;;;8.07;2.33;;;;;;;16.64;100.00;101330.94;5118396;28;20075;-58
2023/08/17 07:05:49;;;;;;;11.27;2.47;;;;;;;16.63;100.00;101343.66;5117904;28;20067;-56
2023/08/17 07:08:15;;;;;;;5.80;2.50;;;;;;;16.66;100.00;101335.16;5117906;28;20048;-57
2023/08/17 07:10:42;;;;;;;10.02;2.30;;;;;;;16.32;100.00;101348.31;5117623;28;20065;-58
2023/08/17 07:13:08;;;;;;;8.40;2.60;;;;;;;16.10;100.00;101345.47;5118876;28;20040;-59
2023/08/17 07:15:35;;;;;;;8.95;2.75;;;;;;;16.10;100.00;101350.88;5118687;28;20047;-58
2023/08/17 07:18:02;;;;;;;5.93;2.75;;;;;;;16.19;100.00;101349.81;5119094;28;20043;-57
2023/08/17 07:20:29;;;;;;;8.85;2.88;;;;;;;16.10;100.00;101352.75;5119163;28;20058;-58
2023/08/17 07:22:57;;;;;;;7.78;3.20;;;;;;;16.04;100.00;101351.59;5118708;28;20108;-58
2023/08/17 07:25:24;;;;;;;5.10;2.33;;;;;;;16.09;100.00;101348.34;5118263;28;20067;-60
2023/08/17 07:27:51;;;;;;;9.57;2.80;;;;;;;15.84;100.00;101334.16;5115685;28;20411;-57
2023/08/17 07:30:17;;;;;;;9.88;2.80;;;;;;;15.84;100.00;101328.75;5021035;28;20049;-58
2023/08/17 07:32:44;;;;;;;13.20;3.53;;;;;;;15.67;100.00;101333.44;5016890;28;20123;-60
2023/08/17 07:35:11;;;;;;;8.02;2.97;;;;;;;15.64;100.00;101331.94;5016333;28;20046;-57
2023/08/17 07:37:38;;;;;;;10.38;2.53;;;;;;;15.63;100.00;101319.41;5015669;28;20058;-59
2023/08/17 07:40:05;;;;;;;9.68;3.05;;;;;;;15.51;100.00;101312.72;5021301;28;20042;-60
2023/08/17 07:42:31;;;;;;;11.82;3.83;;;;;;;15.63;100.00;101311.31;5026458;28;20107;-60
2023/08/17 07:44:58;;;;;;;11.90;2.80;;;;;;;15.51;100.00;101303.78;5027619;28;20050;-59
2023/08/17 07:47:26;;;;;;;8.73;2.95;;;;;;;15.58;100.00;101297.47;5026437;28;20061;-60
2023/08/17 07:49:53;;;;;;;8.38;2.97;;;;;;;15.56;100.00;101283.25;5025136;28;20046;-60
2023/08/17 07:52:22;;;;;;;14.10;3.78;;;;;;;15.74;100.00;101291.09;5025981;28;20079;-61
2023/08/17 07:54:49;;;;;;;5.18;2.63;;;;;;;15.72;100.00;101298.59;5020352;28;20042;-59
2023/08/17 07:57:16;;;;;;;9.55;2.50;;;;;;;15.71;100.00;101305.03;5015388;28;20046;-59
2023/08/17 07:59:42;;;;;;;13.68;2.83;;;;;;;15.58;100.00;101305.56;5014799;28;20124;-60
2023/08/17 08:02:09;;;;;;;9.10;3.15;;;;;;;15.45;100.00;101295.34;5015570;28;20052;-58
2023/08/17 08:04:36;;;;;;;10.30;2.90;;;;;;;15.74;100.00;101299.22;5016412;28;20050;-59
2023/08/17 08:07:02;;;;;;;10.38;2.80;;;;;;;15.82;100.00;101303.75;5015016;28;20099;-59
2023/08/17 08:09:29;;;;;;;6.80;2.80;;;;;;;16.30;100.00;101313.31;5016445;28;20057;-59
2023/08/17 10:17:42;;;;;;;9.05;3.30;;;;;;;17.73;100.00;101217.16;5011918;28;20062;-62
2023/08/17 10:20:10;;;;;;;4.75;2.97;;;;;;;17.84;100.00;101222.03;5007062;28;20037;-62
2023/08/17 10:22:48;;;;;;;4.80;2.90;;;;;;;17.87;100.00;101235.22;5007372;28;20073;-63
2023/08/17 10:25:16;;;;;;;6.30;3.13;;;;;;;18.10;100.00;101240.44;5007919;28;20046;-62
2023/08/17 10:27:45;;;;;;;8.05;3.38;;;;;;;19.06;100.00;101261.50;5007934;28;20417;-64
2023/08/17 10:30:12;;;;;;;9.18;3.22;;;;;;;18.87;100.00;101258.47;5007444;28;20395;-63
2023/08/17 10:32:44;;;;;;;4.63;2.70;;;;;;;18.82;100.00;101249.22;5006280;28;20463;-63
2023/08/17 10:35:13;;;;;;;5.88;2.88;;;;;;;18.66;100.00;101253.16;5007498;28;20052;-63
2023/08/17 10:37:40;;;;;;;12.45;2.92;;;;;;;18.86;100.00;101250.50;5006860;28;20098;-62
2023/08/17 10:40:08;;;;;;;5.78;3.15;;;;;;;18.55;100.00;101255.38;5007344;28;20046;-62
2023/08/17 10:42:40;;;;;;;6.97;3.20;;;;;;;18.74;100.00;101248.38;5007686;28;20046;-62
2023/08/17 10:45:21;;;;;;;5.53;2.97;;;;;;;18.92;100.00;101261.44;5007177;28;20046;-63
2023/08/17 10:47:48;;;;;;;;;;;;;;;19.75;100.00;101269.44;5007851;28;20046;-63
2023/08/17 10:50:23;;;;;;;9.35;3.45;;;;;;;19.41;100.00;101267.66;5006784;28;19925;-62
2023/08/17 10:52:52;;;;;;;7.53;3.42;;;;;;;19.01;100.00;101265.66;5007590;28;20050;-63
2023/08/17 10:55:36;;;;;;;7.20;2.92;;;;;;;19.37;100.00;101259.09;5007415;28;20045;-62
2023/08/17 10:58:04;;;;;;;7.93;3.20;;;;;;;19.20;100.00;101258.63;5006890;28;20050;-62
2023/08/17 11:00:39;;;;;;;4.63;3.25;;;;;;;19.19;100.00;101251.50;5006176;28;20054;-62
2023/08/17 11:03:09;;;;;;;6.93;3.20;;;;;;;19.07;100.00;101245.00;5006508;28;20470;-62
2023/08/17 11:05:49;;;;;;;9.52;3.72;;;;;;;19.16;100.00;101251.91;5005741;28;20470;-61
2023/08/17 11:08:31;;;;;;;10.20;3.67;;;;;;;19.54;100.00;101253.25;5006887;28;20148;-61
2023/08/17 11:11:14;;;;;;;10.20;3.33;;;;;;;19.19;100.00;101247.94;5007367;28;20042;-62
2023/08/17 11:13:44;;;;;;;5.47;3.53;;;;;;;18.52;100.00;101239.47;5006393;28;20073;-61
2023/08/17 11:16:14;;;;;;;8.52;3.72;;;;;;;18.70;100.00;101230.78;5006668;28;20046;-62
2023/08/17 11:18:44;;;;;;;8.65;3.67;;;;;;;19.36;100.00;101238.38;5007493;28;20050;-62
2023/08/17 11:21:12;;;;;;;7.22;3.50;;;;;;;18.95;100.00;101247.44;5007290;28;20129;-61
2023/08/17 11:23:45;;;;;;;6.65;3.63;;;;;;;19.20;100.00;101246.91;5006758;28;20060;-62
2023/08/17 11:26:15;;;;;;;15.40;3.83;;;;;;;18.68;100.00;101227.41;5007569;28;20489;-62
2023/08/17 11:28:41;;;;;;;8.38;3.97;;;;;;;18.77;100.00;101230.81;4996624;28;20555;-62
2023/08/17 11:31:11;;;;;;;10.68;4.13;;;;;;;18.69;100.00;101234.56;4987495;28;20052;-60
2023/08/17 11:33:39;;;;;;;7.60;4.28;;;;;;;18.37;100.00;101206.16;4987534;28;20050;-63
2023/08/17 11:36:07;;;;;;;8.93;3.63;;;;;;;18.59;100.00;101217.78;4986939;28;20046;-62
2023/08/17 11:38:36;;;;;;;8.50;3.90;;;;;;;18.28;100.00;101199.22;4986966;28;20054;-60
2023/08/17 11:41:03;;;;;;;10.45;4.03;;;;;;;18.32;100.00;101181.47;4986754;28;20080;-62
2023/08/17 11:43:32;;;;;;;5.95;3.55;;;;;;;17.92;100.00;101164.88;4987611;28;20054;-62
2023/08/17 11:46:00;;;;;;;8.50;4.30;;;;;;;18.25;100.00;101169.75;4987759;28;20111;-62
2023/08/17 11:48:28;;;;;;;6.90;4.10;;;;;;;19.04;100.00;101199.19;4989828;28;20047;-62
2023/08/17 11:50:55;;;;;;;4.95;3.25;;;;;;;19.79;100.00;101227.13;4991238;28;20505;-62
2023/08/17 11:53:22;;;;;;;8.75;3.88;;;;;;;20.20;100.00;101236.97;4991464;28;20054;-62
2023/08/17 11:55:49;;;;;;;7.07;3.65;;;;;;;21.31;100.00;101234.09;4990816;28;20047;-62
2023/08/17 11:58:39;;;;;;;7.97;3.20;;;;;;;21.12;100.00;101244.09;4990875;28;20055;-61
2023/08/17 12:01:10;;;;;;;8.38;3.15;;;;;;;21.00;100.00;101253.13;4990226;28;20358;-62
2023/08/17 12:03:38;;;;;;;8.60;3.78;;;;;;;20.31;100.00;101240.94;4991106;28;20133;-62
2023/08/17 12:06:05;;;;;;;8.45;3.70;;;;;;;20.40;100.00;101239.69;4990508;28;20062;-62
2023/08/17 12:08:31;;;;;;;9.07;3.38;;;;;;;20.63;100.00;101239.22;4990475;28;20054;-62
2023/08/17 12:10:58;;;;;;;8.88;3.90;;;;;;;20.12;100.00;101234.47;4991345;28;20058;-61
2023/08/17 12:13:34;;;;;;;9.70;3.83;;;;;;;19.85;100.00;101236.38;4990926;28;20050;-61
2023/08/17 12:16:01;;;;;;;13.07;5.63;;;;;;;20.07;100.00;101231.53;5037540;28;20108;-61
2023/08/17 12:18:27;;;;;;;9.35;4.05;;;;;;;19.80;100.00;101226.13;5112912;28;20058;-62
2023/08/17 12:20:55;;;;;;;12.52;4.80;;;;;;;20.00;100.00;101222.53;5112340;28;20047;-62
2023/08/17 12:23:22;;;;;;;13.07;4.28;;;;;;;20.00;100.00;101219.81;5112900;28;20513;-62
2023/08/17 12:25:55;;;;;;;7.05;4.10;;;;;;;19.82;100.00;101213.09;5113115;28;20071;-62
2023/08/17 12:28:24;;;;;;;6.05;4.00;;;;;;;19.89;100.00;101219.38;5106362;28;20054;-62
2023/08/17 12:31:01;;;;;;;6.03;3.83;;;;;;;20.30;100.00;101225.63;5092853;28;20055;-63
2023/08/17 12:33:28;;;;;;;5.53;3.88;;;;;;;20.28;100.00;101217.69;5092563;28;20162;-62
2023/08/17 12:35:55;;;;;;;10.05;3.95;;;;;;;20.85;100.00;101223.41;5092484;28;20461;-61
2023/08/17 12:38:24;;;;;;;7.13;3.75;;;;;;;21.18;100.00;101217.78;5092684;28;20052;-61
2023/08/17 12:40:51;;;;;;;5.13;4.07;;;;;;;21.38;100.00;101215.78;5092766;28;20056;-62
2023/08/17 12:43:18;;;;;;;5.03;3.80;;;;;;;21.78;100.00;101217.41;5092269;28;20051;-62
2023/08/17 12:45:44;;;;;;;5.97;3.92;;;;;;;22.08;100.00;101223.03;5092624;28;20048;-61
2023/08/17 12:48:11;;;;;;;6.93;4.00;;;;;;;22.38;100.00;101219.59;5092362;28;20044;-62
2023/08/17 12:50:38;;;;;;;7.80;4.22;;;;;;;21.00;100.00;101209.47;5091905;28;20080;-61
2023/08/17 12:53:08;;;;;;;8.05;4.43;;;;;;;21.09;100.00;101213.63;5091648;28;20081;-61
2023/08/17 12:55:35;;;;;;;5.47;3.85;;;;;;;20.55;100.00;101206.72;5092191;28;20467;-61
2023/08/17 12:58:02;;;;;;;7.15;4.40;;;;;;;20.09;100.00;101196.75;5092655;28;20126;-60
2023/08/17 13:00:29;;;;;;;7.38;4.35;;;;;;;20.22;100.00;101190.47;5091660;28;20454;-63
2023/08/17 13:02:55;;;;;;;6.53;4.63;;;;;;;20.36;100.00;101186.66;5092185;28;20052;-61
2023/08/17 13:05:22;;;;;;;6.88;4.30;;;;;;;20.40;100.00;101191.47;5091501;28;20055;-61
2023/08/17 13:07:49;;;;;;;7.70;4.50;;;;;;;20.07;100.00;101193.41;5092334;28;20052;-61
2023/08/17 13:10:16;;;;;;;6.97;4.45;;;;;;;20.42;100.00;101186.66;5092046;28;20375;-61
2023/08/17 13:12:43;;;;;;;5.93;4.25;;;;;;;20.60;100.00;101187.88;5091803;28;20048;-61
2023/08/17 13:15:09;;;;;;;7.57;4.70;;;;;;;21.07;100.00;101185.72;5089382;28;20048;-63
2023/08/17 13:17:36;;;;;;;5.10;4.10;;;;;;;20.93;100.00;101190.41;5009401;28;20046;-62
2023/08/17 13:20:05;;;;;;;9.93;4.45;;;;;;;21.00;100.00;101195.84;5008525;28;20068;-62
2023/08/17 13:22:32;;;;;;;9.60;4.40;;;;;;;20.92;100.00;101195.03;5007897;28;20129;-62
2023/08/17 13:24:59;;;;;;;6.07;4.43;;;;;;;21.21;100.00;101198.25;5008812;28;20070;-63
2023/08/17 13:27:27;;;;;;;6.90;4.20;;;;;;;21.08;100.00;101185.53;5008983;28;20053;-62
2023/08/17 13:29:53;;;;;;;6.18;4.57;;;;;;;21.19;100.00;101188.66;5072265;28;20057;-62